sensor_id;sensor_type;location;lat;lon;timestamp;P1;durP1;ratioP1;P2;durP2;ratioP2
79019;SDS011;72857;44.740;37.770;2023-12-14T00:00:59;24.88;;;12.15;;
79019;SDS011;72857;44.740;37.770;2023-12-14T00:02:03;18.38;;;10.43;;
79019;SDS011;72857;44.740;37.770;2023-12-14T00:03:05;23.88;;;11.27;;
79019;SDS011;72857;44.740;37.770;2023-12-14T00:04:07;26.65;;;11.35;;
79019;SDS011;72857;44.740;37.770;2023-12-14T00:05:09;26.60;;;12.93;;
79019;SDS011;72857;44.740;37.770;2023-12-14T00:06:10;26.02;;;11.48;;
79019;SDS011;72857;44.740;37.770;2023-12-14T00:07:12;31.60;;;13.80;;
79019;SDS011;72857;44.740;37.770;2023-12-14T00:08:16;27.70;;;12.50;;
79019;SDS011;72857;44.740;37.770;2023-12-14T00:09:17;34.55;;;13.25;;
79019;SDS011;72857;44.740;37.770;2023-12-14T00:10:19;28.33;;;12.27;;
79019;SDS011;72857;44.740;37.770;2023-12-14T00:11:20;29.13;;;12.35;;
79019;SDS011;72857;44.740;37.770;2023-12-14T00:12:22;28.95;;;11.95;;
79019;SDS011;72857;44.740;37.770;2023-12-14T00:13:24;24.35;;;12.30;;
79019;SDS011;72857;44.740;37.770;2023-12-14T00:14:25;30.80;;;12.95;;
79019;SDS011;72857;44.740;37.770;2023-12-14T00:15:27;29.20;;;11.60;;
79019;SDS011;72857;44.740;37.770;2023-12-14T00:16:29;30.55;;;11.43;;
79019;SDS011;72857;44.740;37.770;2023-12-14T00:17:30;27.48;;;12.10;;
79019;SDS011;72857;44.740;37.770;2023-12-14T00:18:32;33.63;;;12.68;;
79019;SDS011;72857;44.740;37.770;2023-12-14T00:19:33;27.75;;;12.80;;
79019;SDS011;72857;44.740;37.770;2023-12-14T00:20:38;27.05;;;11.65;;
79019;SDS011;72857;44.740;37.770;2023-12-14T00:21:39;25.08;;;12.55;;
79019;SDS011;72857;44.740;37.770;2023-12-14T00:22:41;24.45;;;11.43;;
79019;SDS011;72857;44.740;37.770;2023-12-14T00:23:43;21.50;;;10.95;;
79019;SDS011;72857;44.740;37.770;2023-12-14T00:24:45;25.80;;;11.40;;
79019;SDS011;72857;44.740;37.770;2023-12-14T00:25:46;26.25;;;12.10;;
79019;SDS011;72857;44.740;37.770;2023-12-14T00:26:48;21.83;;;11.00;;
79019;SDS011;72857;44.740;37.770;2023-12-14T00:27:50;28.00;;;10.98;;
79019;SDS011;72857;44.740;37.770;2023-12-14T00:28:51;21.15;;;11.25;;
79019;SDS011;72857;44.740;37.770;2023-12-14T00:29:53;23.25;;;12.07;;
79019;SDS011;72857;44.740;37.770;2023-12-14T00:30:54;28.95;;;13.27;;
79019;SDS011;72857;44.740;37.770;2023-12-14T00:31:56;27.15;;;12.48;;
79019;SDS011;72857;44.740;37.770;2023-12-14T00:32:58;26.17;;;11.93;;
79019;SDS011;72857;44.740;37.770;2023-12-14T00:33:59;25.10;;;12.20;;
79019;SDS011;72857;44.740;37.770;2023-12-14T00:35:01;32.05;;;13.07;;
79019;SDS011;72857;44.740;37.770;2023-12-14T00:36:02;27.95;;;13.15;;
79019;SDS011;72857;44.740;37.770;2023-12-14T00:37:04;27.35;;;14.80;;
79019;SDS011;72857;44.740;37.770;2023-12-14T00:38:06;27.73;;;13.57;;
79019;SDS011;72857;44.740;37.770;2023-12-14T00:39:07;30.27;;;14.27;;
79019;SDS011;72857;44.740;37.770;2023-12-14T00:40:10;25.63;;;13.13;;
79019;SDS011;72857;44.740;37.770;2023-12-14T00:41:12;27.67;;;13.68;;
79019;SDS011;72857;44.740;37.770;2023-12-14T00:42:14;33.67;;;13.90;;
79019;SDS011;72857;44.740;37.770;2023-12-14T00:43:15;27.75;;;13.00;;
79019;SDS011;72857;44.740;37.770;2023-12-14T00:44:17;51.80;;;16.10;;
79019;SDS011;72857;44.740;37.770;2023-12-14T00:45:18;57.03;;;15.27;;
79019;SDS011;72857;44.740;37.770;2023-12-14T00:46:20;37.13;;;14.48;;
79019;SDS011;72857;44.740;37.770;2023-12-14T00:47:22;61.22;;;18.38;;
79019;SDS011;72857;44.740;37.770;2023-12-14T00:48:23;82.85;;;22.67;;
79019;SDS011;72857;44.740;37.770;2023-12-14T00:49:25;43.95;;;16.15;;
79019;SDS011;72857;44.740;37.770;2023-12-14T00:50:29;44.33;;;15.95;;
79019;SDS011;72857;44.740;37.770;2023-12-14T00:51:30;39.78;;;15.93;;
79019;SDS011;72857;44.740;37.770;2023-12-14T00:52:32;45.03;;;16.13;;
79019;SDS011;72857;44.740;37.770;2023-12-14T00:53:34;38.45;;;15.80;;
79019;SDS011;72857;44.740;37.770;2023-12-14T00:54:37;42.85;;;14.18;;
79019;SDS011;72857;44.740;37.770;2023-12-14T00:55:39;39.25;;;13.90;;
79019;SDS011;72857;44.740;37.770;2023-12-14T00:56:40;42.55;;;16.10;;
79019;SDS011;72857;44.740;37.770;2023-12-14T00:57:42;39.53;;;15.25;;
79019;SDS011;72857;44.740;37.770;2023-12-14T00:58:44;28.08;;;13.45;;
79019;SDS011;72857;44.740;37.770;2023-12-14T00:59:45;25.58;;;12.55;;
79019;SDS011;72857;44.740;37.770;2023-12-14T01:00:47;27.92;;;12.70;;
79019;SDS011;72857;44.740;37.770;2023-12-14T01:01:48;24.77;;;11.32;;
79019;SDS011;72857;44.740;37.770;2023-12-14T01:02:50;19.38;;;11.13;;
79019;SDS011;72857;44.740;37.770;2023-12-14T01:03:52;31.80;;;12.07;;
79019;SDS011;72857;44.740;37.770;2023-12-14T01:04:53;22.25;;;11.77;;
79019;SDS011;72857;44.740;37.770;2023-12-14T01:05:55;21.35;;;11.52;;
79019;SDS011;72857;44.740;37.770;2023-12-14T01:06:57;21.80;;;13.88;;
79019;SDS011;72857;44.740;37.770;2023-12-14T01:07:59;23.55;;;12.75;;
79019;SDS011;72857;44.740;37.770;2023-12-14T01:09:00;29.15;;;13.57;;
79019;SDS011;72857;44.740;37.770;2023-12-14T01:10:02;30.20;;;13.63;;
79019;SDS011;72857;44.740;37.770;2023-12-14T01:11:06;25.52;;;12.27;;
79019;SDS011;72857;44.740;37.770;2023-12-14T01:12:08;31.88;;;14.32;;
79019;SDS011;72857;44.740;37.770;2023-12-14T01:13:10;27.20;;;15.63;;
79019;SDS011;72857;44.740;37.770;2023-12-14T01:14:12;32.20;;;14.23;;
79019;SDS011;72857;44.740;37.770;2023-12-14T01:15:13;30.83;;;14.80;;
79019;SDS011;72857;44.740;37.770;2023-12-14T01:16:15;33.60;;;15.10;;
79019;SDS011;72857;44.740;37.770;2023-12-14T01:17:16;34.05;;;15.52;;
79019;SDS011;72857;44.740;37.770;2023-12-14T01:18:19;44.92;;;15.40;;
79019;SDS011;72857;44.740;37.770;2023-12-14T01:19:21;42.63;;;15.60;;
79019;SDS011;72857;44.740;37.770;2023-12-14T01:20:22;35.00;;;15.23;;
79019;SDS011;72857;44.740;37.770;2023-12-14T01:21:24;32.30;;;14.13;;
79019;SDS011;72857;44.740;37.770;2023-12-14T01:22:26;32.70;;;14.13;;
79019;SDS011;72857;44.740;37.770;2023-12-14T01:23:27;31.73;;;14.77;;
79019;SDS011;72857;44.740;37.770;2023-12-14T01:24:29;40.47;;;15.60;;
79019;SDS011;72857;44.740;37.770;2023-12-14T01:25:30;40.88;;;15.93;;
79019;SDS011;72857;44.740;37.770;2023-12-14T01:26:32;33.33;;;14.88;;
79019;SDS011;72857;44.740;37.770;2023-12-14T01:27:34;47.22;;;17.83;;
79019;SDS011;72857;44.740;37.770;2023-12-14T01:28:36;34.08;;;14.80;;
79019;SDS011;72857;44.740;37.770;2023-12-14T01:29:37;42.72;;;15.10;;
79019;SDS011;72857;44.740;37.770;2023-12-14T01:30:39;59.78;;;17.77;;
79019;SDS011;72857;44.740;37.770;2023-12-14T01:31:40;67.75;;;18.17;;
79019;SDS011;72857;44.740;37.770;2023-12-14T01:32:42;50.15;;;16.20;;
79019;SDS011;72857;44.740;37.770;2023-12-14T01:33:44;62.92;;;18.17;;
79019;SDS011;72857;44.740;37.770;2023-12-14T01:34:48;63.17;;;19.25;;
79019;SDS011;72857;44.740;37.770;2023-12-14T01:35:50;55.78;;;17.58;;
79019;SDS011;72857;44.740;37.770;2023-12-14T01:36:51;71.90;;;19.67;;
79019;SDS011;72857;44.740;37.770;2023-12-14T01:37:53;43.42;;;17.13;;
79019;SDS011;72857;44.740;37.770;2023-12-14T01:38:55;45.30;;;17.08;;
79019;SDS011;72857;44.740;37.770;2023-12-14T01:39:56;44.92;;;17.27;;
79019;SDS011;72857;44.740;37.770;2023-12-14T01:40:58;41.25;;;15.65;;
79019;SDS011;72857;44.740;37.770;2023-12-14T01:42:01;42.05;;;15.13;;
79019;SDS011;72857;44.740;37.770;2023-12-14T01:43:06;46.63;;;14.48;;
79019;SDS011;72857;44.740;37.770;2023-12-14T01:44:14;64.07;;;17.85;;
79019;SDS011;72857;44.740;37.770;2023-12-14T01:45:15;68.05;;;18.60;;
79019;SDS011;72857;44.740;37.770;2023-12-14T01:46:17;76.03;;;19.35;;
79019;SDS011;72857;44.740;37.770;2023-12-14T01:47:19;55.13;;;16.58;;
79019;SDS011;72857;44.740;37.770;2023-12-14T01:48:20;49.80;;;15.10;;
79019;SDS011;72857;44.740;37.770;2023-12-14T01:49:22;50.13;;;16.10;;
79019;SDS011;72857;44.740;37.770;2023-12-14T01:50:24;45.10;;;16.17;;
79019;SDS011;72857;44.740;37.770;2023-12-14T01:51:25;51.90;;;17.05;;
79019;SDS011;72857;44.740;37.770;2023-12-14T01:52:27;58.15;;;18.52;;
79019;SDS011;72857;44.740;37.770;2023-12-14T01:53:29;49.45;;;15.23;;
79019;SDS011;72857;44.740;37.770;2023-12-14T01:54:30;44.47;;;16.48;;
79019;SDS011;72857;44.740;37.770;2023-12-14T01:55:32;48.58;;;16.50;;
79019;SDS011;72857;44.740;37.770;2023-12-14T01:56:34;48.92;;;16.98;;
79019;SDS011;72857;44.740;37.770;2023-12-14T01:57:36;46.20;;;15.85;;
79019;SDS011;72857;44.740;37.770;2023-12-14T01:58:37;43.10;;;16.10;;
79019;SDS011;72857;44.740;37.770;2023-12-14T01:59:39;42.70;;;14.93;;
79019;SDS011;72857;44.740;37.770;2023-12-14T02:00:41;46.40;;;15.23;;
79019;SDS011;72857;44.740;37.770;2023-12-14T02:01:54;51.85;;;16.35;;
79019;SDS011;72857;44.740;37.770;2023-12-14T02:02:57;47.33;;;16.98;;
79019;SDS011;72857;44.740;37.770;2023-12-14T02:03:58;42.40;;;16.65;;
79019;SDS011;72857;44.740;37.770;2023-12-14T02:05:00;49.13;;;15.85;;
79019;SDS011;72857;44.740;37.770;2023-12-14T02:06:03;50.25;;;18.65;;
79019;SDS011;72857;44.740;37.770;2023-12-14T02:07:05;48.53;;;17.38;;
79019;SDS011;72857;44.740;37.770;2023-12-14T02:08:07;48.60;;;16.88;;
79019;SDS011;72857;44.740;37.770;2023-12-14T02:09:09;49.95;;;15.85;;
79019;SDS011;72857;44.740;37.770;2023-12-14T02:10:11;45.47;;;15.02;;
79019;SDS011;72857;44.740;37.770;2023-12-14T02:11:12;50.47;;;15.73;;
79019;SDS011;72857;44.740;37.770;2023-12-14T02:12:14;61.95;;;15.90;;
79019;SDS011;72857;44.740;37.770;2023-12-14T02:13:16;38.78;;;15.65;;
79019;SDS011;72857;44.740;37.770;2023-12-14T02:14:17;51.67;;;15.77;;
79019;SDS011;72857;44.740;37.770;2023-12-14T02:15:19;45.95;;;16.27;;
79019;SDS011;72857;44.740;37.770;2023-12-14T02:16:21;41.38;;;14.88;;
79019;SDS011;72857;44.740;37.770;2023-12-14T02:17:22;37.92;;;15.90;;
79019;SDS011;72857;44.740;37.770;2023-12-14T02:18:24;41.88;;;15.02;;
79019;SDS011;72857;44.740;37.770;2023-12-14T02:19:26;55.35;;;17.10;;
79019;SDS011;72857;44.740;37.770;2023-12-14T02:20:27;41.63;;;15.30;;
79019;SDS011;72857;44.740;37.770;2023-12-14T02:21:29;51.67;;;14.88;;
79019;SDS011;72857;44.740;37.770;2023-12-14T02:22:35;54.33;;;15.68;;
79019;SDS011;72857;44.740;37.770;2023-12-14T02:23:50;41.85;;;13.77;;
79019;SDS011;72857;44.740;37.770;2023-12-14T02:24:51;40.83;;;15.73;;
79019;SDS011;72857;44.740;37.770;2023-12-14T02:25:53;51.85;;;16.02;;
79019;SDS011;72857;44.740;37.770;2023-12-14T02:26:55;35.03;;;12.48;;
79019;SDS011;72857;44.740;37.770;2023-12-14T02:27:58;41.00;;;14.25;;
79019;SDS011;72857;44.740;37.770;2023-12-14T02:29:00;39.45;;;14.40;;
79019;SDS011;72857;44.740;37.770;2023-12-14T02:30:01;36.92;;;13.63;;
79019;SDS011;72857;44.740;37.770;2023-12-14T02:31:03;40.80;;;16.02;;
79019;SDS011;72857;44.740;37.770;2023-12-14T02:32:05;49.60;;;16.02;;
79019;SDS011;72857;44.740;37.770;2023-12-14T02:33:07;36.38;;;14.40;;
79019;SDS011;72857;44.740;37.770;2023-12-14T02:34:08;60.15;;;15.48;;
79019;SDS011;72857;44.740;37.770;2023-12-14T02:35:10;37.75;;;14.68;;
79019;SDS011;72857;44.740;37.770;2023-12-14T02:36:12;44.55;;;13.65;;
79019;SDS011;72857;44.740;37.770;2023-12-14T02:37:13;36.58;;;14.35;;
79019;SDS011;72857;44.740;37.770;2023-12-14T02:38:15;24.52;;;12.02;;
79019;SDS011;72857;44.740;37.770;2023-12-14T02:39:19;34.63;;;11.43;;
79019;SDS011;72857;44.740;37.770;2023-12-14T02:40:21;30.58;;;12.23;;
79019;SDS011;72857;44.740;37.770;2023-12-14T02:41:23;38.42;;;11.77;;
79019;SDS011;72857;44.740;37.770;2023-12-14T02:42:24;32.95;;;12.50;;
79019;SDS011;72857;44.740;37.770;2023-12-14T02:43:26;37.70;;;13.07;;
79019;SDS011;72857;44.740;37.770;2023-12-14T02:44:27;44.85;;;12.70;;
79019;SDS011;72857;44.740;37.770;2023-12-14T02:45:29;53.22;;;14.00;;
79019;SDS011;72857;44.740;37.770;2023-12-14T02:46:31;59.05;;;15.18;;
79019;SDS011;72857;44.740;37.770;2023-12-14T02:47:32;36.83;;;13.25;;
79019;SDS011;72857;44.740;37.770;2023-12-14T02:48:34;67.70;;;17.30;;
79019;SDS011;72857;44.740;37.770;2023-12-14T02:49:35;34.42;;;13.23;;
79019;SDS011;72857;44.740;37.770;2023-12-14T02:50:37;43.85;;;13.60;;
79019;SDS011;72857;44.740;37.770;2023-12-14T02:51:39;33.58;;;13.02;;
79019;SDS011;72857;44.740;37.770;2023-12-14T02:52:40;33.30;;;12.10;;
79019;SDS011;72857;44.740;37.770;2023-12-14T02:53:42;41.67;;;15.25;;
79019;SDS011;72857;44.740;37.770;2023-12-14T02:54:44;42.10;;;12.85;;
79019;SDS011;72857;44.740;37.770;2023-12-14T02:55:46;41.60;;;14.55;;
79019;SDS011;72857;44.740;37.770;2023-12-14T02:56:47;39.63;;;13.43;;
79019;SDS011;72857;44.740;37.770;2023-12-14T02:57:49;33.83;;;14.00;;
79019;SDS011;72857;44.740;37.770;2023-12-14T02:58:50;45.33;;;15.30;;
79019;SDS011;72857;44.740;37.770;2023-12-14T02:59:54;47.13;;;14.38;;
79019;SDS011;72857;44.740;37.770;2023-12-14T03:00:56;59.17;;;17.58;;
79019;SDS011;72857;44.740;37.770;2023-12-14T03:01:58;50.22;;;16.17;;
79019;SDS011;72857;44.740;37.770;2023-12-14T03:02:59;32.90;;;15.50;;
79019;SDS011;72857;44.740;37.770;2023-12-14T03:04:01;33.40;;;14.90;;
79019;SDS011;72857;44.740;37.770;2023-12-14T03:05:02;32.40;;;13.65;;
79019;SDS011;72857;44.740;37.770;2023-12-14T03:06:04;33.17;;;14.48;;
79019;SDS011;72857;44.740;37.770;2023-12-14T03:07:06;33.85;;;14.55;;
79019;SDS011;72857;44.740;37.770;2023-12-14T03:08:08;33.30;;;13.80;;
79019;SDS011;72857;44.740;37.770;2023-12-14T03:09:09;32.13;;;13.52;;
79019;SDS011;72857;44.740;37.770;2023-12-14T03:10:11;35.95;;;14.52;;
79019;SDS011;72857;44.740;37.770;2023-12-14T03:11:20;31.65;;;13.48;;
79019;SDS011;72857;44.740;37.770;2023-12-14T03:12:23;29.65;;;12.90;;
79019;SDS011;72857;44.740;37.770;2023-12-14T03:13:25;37.00;;;13.68;;
79019;SDS011;72857;44.740;37.770;2023-12-14T03:14:31;32.80;;;14.45;;
79019;SDS011;72857;44.740;37.770;2023-12-14T03:15:33;36.58;;;14.35;;
79019;SDS011;72857;44.740;37.770;2023-12-14T03:16:35;38.42;;;17.33;;
79019;SDS011;72857;44.740;37.770;2023-12-14T03:17:36;32.00;;;16.52;;
79019;SDS011;72857;44.740;37.770;2023-12-14T03:18:38;44.38;;;17.00;;
79019;SDS011;72857;44.740;37.770;2023-12-14T03:19:40;58.58;;;21.70;;
79019;SDS011;72857;44.740;37.770;2023-12-14T03:20:42;51.97;;;19.45;;
79019;SDS011;72857;44.740;37.770;2023-12-14T03:21:43;52.83;;;16.42;;
79019;SDS011;72857;44.740;37.770;2023-12-14T03:22:45;46.03;;;16.58;;
79019;SDS011;72857;44.740;37.770;2023-12-14T03:23:46;52.72;;;18.77;;
79019;SDS011;72857;44.740;37.770;2023-12-14T03:24:48;42.67;;;16.52;;
79019;SDS011;72857;44.740;37.770;2023-12-14T03:25:50;38.90;;;15.50;;
79019;SDS011;72857;44.740;37.770;2023-12-14T03:26:51;39.97;;;17.65;;
79019;SDS011;72857;44.740;37.770;2023-12-14T03:27:53;40.40;;;17.52;;
79019;SDS011;72857;44.740;37.770;2023-12-14T03:28:54;67.03;;;18.80;;
79019;SDS011;72857;44.740;37.770;2023-12-14T03:29:56;73.85;;;21.70;;
79019;SDS011;72857;44.740;37.770;2023-12-14T03:30:57;40.55;;;19.02;;
79019;SDS011;72857;44.740;37.770;2023-12-14T03:31:59;37.75;;;18.10;;
79019;SDS011;72857;44.740;37.770;2023-12-14T03:33:01;44.70;;;18.58;;
79019;SDS011;72857;44.740;37.770;2023-12-14T03:34:03;40.60;;;17.52;;
79019;SDS011;72857;44.740;37.770;2023-12-14T03:35:04;55.22;;;18.23;;
79019;SDS011;72857;44.740;37.770;2023-12-14T03:36:06;59.05;;;19.42;;
79019;SDS011;72857;44.740;37.770;2023-12-14T03:37:08;47.00;;;20.15;;
79019;SDS011;72857;44.740;37.770;2023-12-14T03:38:10;51.78;;;18.55;;
79019;SDS011;72857;44.740;37.770;2023-12-14T03:39:11;51.50;;;19.60;;
79019;SDS011;72857;44.740;37.770;2023-12-14T03:40:13;49.67;;;19.60;;
79019;SDS011;72857;44.740;37.770;2023-12-14T03:41:15;47.88;;;20.73;;
79019;SDS011;72857;44.740;37.770;2023-12-14T03:42:16;52.03;;;23.92;;
79019;SDS011;72857;44.740;37.770;2023-12-14T03:43:18;54.10;;;21.83;;
79019;SDS011;72857;44.740;37.770;2023-12-14T03:44:20;42.47;;;21.88;;
79019;SDS011;72857;44.740;37.770;2023-12-14T03:45:22;43.75;;;20.75;;
79019;SDS011;72857;44.740;37.770;2023-12-14T03:46:23;51.90;;;21.63;;
79019;SDS011;72857;44.740;37.770;2023-12-14T03:47:26;43.72;;;21.13;;
79019;SDS011;72857;44.740;37.770;2023-12-14T03:48:27;39.05;;;19.55;;
79019;SDS011;72857;44.740;37.770;2023-12-14T03:49:29;45.00;;;20.10;;
79019;SDS011;72857;44.740;37.770;2023-12-14T03:50:30;54.40;;;20.45;;
79019;SDS011;72857;44.740;37.770;2023-12-14T03:51:33;41.80;;;19.35;;
79019;SDS011;72857;44.740;37.770;2023-12-14T03:52:35;36.13;;;15.45;;
79019;SDS011;72857;44.740;37.770;2023-12-14T03:53:37;39.22;;;18.02;;
79019;SDS011;72857;44.740;37.770;2023-12-14T03:54:38;33.45;;;16.20;;
79019;SDS011;72857;44.740;37.770;2023-12-14T03:55:40;30.42;;;14.88;;
79019;SDS011;72857;44.740;37.770;2023-12-14T03:56:41;35.78;;;16.80;;
79019;SDS011;72857;44.740;37.770;2023-12-14T03:57:43;37.38;;;17.13;;
79019;SDS011;72857;44.740;37.770;2023-12-14T03:58:45;38.03;;;17.60;;
79019;SDS011;72857;44.740;37.770;2023-12-14T03:59:46;32.25;;;16.40;;
79019;SDS011;72857;44.740;37.770;2023-12-14T04:00:48;53.97;;;17.38;;
79019;SDS011;72857;44.740;37.770;2023-12-14T04:01:49;31.48;;;16.95;;
79019;SDS011;72857;44.740;37.770;2023-12-14T04:02:51;41.92;;;17.40;;
79019;SDS011;72857;44.740;37.770;2023-12-14T04:03:53;42.13;;;17.17;;
79019;SDS011;72857;44.740;37.770;2023-12-14T04:04:54;30.23;;;15.48;;
79019;SDS011;72857;44.740;37.770;2023-12-14T04:05:56;29.33;;;14.82;;
79019;SDS011;72857;44.740;37.770;2023-12-14T04:06:58;32.50;;;17.35;;
79019;SDS011;72857;44.740;37.770;2023-12-14T04:07:59;28.70;;;15.70;;
79019;SDS011;72857;44.740;37.770;2023-12-14T04:09:01;28.58;;;15.77;;
79019;SDS011;72857;44.740;37.770;2023-12-14T04:10:03;28.77;;;16.10;;
79019;SDS011;72857;44.740;37.770;2023-12-14T04:11:05;32.13;;;16.48;;
79019;SDS011;72857;44.740;37.770;2023-12-14T04:12:06;39.28;;;17.67;;
79019;SDS011;72857;44.740;37.770;2023-12-14T04:13:08;29.60;;;15.85;;
79019;SDS011;72857;44.740;37.770;2023-12-14T04:14:10;31.30;;;15.48;;
79019;SDS011;72857;44.740;37.770;2023-12-14T04:15:12;23.30;;;14.32;;
79019;SDS011;72857;44.740;37.770;2023-12-14T04:16:13;29.13;;;14.30;;
79019;SDS011;72857;44.740;37.770;2023-12-14T04:17:15;30.15;;;15.68;;
79019;SDS011;72857;44.740;37.770;2023-12-14T04:18:16;24.67;;;14.25;;
79019;SDS011;72857;44.740;37.770;2023-12-14T04:19:18;28.15;;;14.57;;
79019;SDS011;72857;44.740;37.770;2023-12-14T04:20:20;42.88;;;14.88;;
79019;SDS011;72857;44.740;37.770;2023-12-14T04:21:21;24.45;;;12.98;;
79019;SDS011;72857;44.740;37.770;2023-12-14T04:22:24;28.92;;;13.52;;
79019;SDS011;72857;44.740;37.770;2023-12-14T04:23:26;28.88;;;14.65;;
79019;SDS011;72857;44.740;37.770;2023-12-14T04:24:28;32.63;;;14.85;;
79019;SDS011;72857;44.740;37.770;2023-12-14T04:25:29;31.02;;;15.45;;
79019;SDS011;72857;44.740;37.770;2023-12-14T04:26:31;30.58;;;14.65;;
79019;SDS011;72857;44.740;37.770;2023-12-14T04:27:32;28.77;;;15.18;;
79019;SDS011;72857;44.740;37.770;2023-12-14T04:28:34;39.17;;;15.70;;
79019;SDS011;72857;44.740;37.770;2023-12-14T04:29:36;27.25;;;14.25;;
79019;SDS011;72857;44.740;37.770;2023-12-14T04:30:37;34.83;;;16.80;;
79019;SDS011;72857;44.740;37.770;2023-12-14T04:31:39;44.60;;;16.90;;
79019;SDS011;72857;44.740;37.770;2023-12-14T04:32:41;32.65;;;15.93;;
79019;SDS011;72857;44.740;37.770;2023-12-14T04:33:43;38.65;;;16.77;;
79019;SDS011;72857;44.740;37.770;2023-12-14T04:34:44;35.90;;;14.80;;
79019;SDS011;72857;44.740;37.770;2023-12-14T04:35:46;25.65;;;15.13;;
79019;SDS011;72857;44.740;37.770;2023-12-14T04:36:47;37.95;;;15.05;;
79019;SDS011;72857;44.740;37.770;2023-12-14T04:37:49;29.52;;;13.18;;
79019;SDS011;72857;44.740;37.770;2023-12-14T04:38:52;27.75;;;14.80;;
79019;SDS011;72857;44.740;37.770;2023-12-14T04:39:53;32.05;;;12.90;;
79019;SDS011;72857;44.740;37.770;2023-12-14T04:40:55;21.02;;;10.23;;
79019;SDS011;72857;44.740;37.770;2023-12-14T04:41:57;23.83;;;12.68;;
79019;SDS011;72857;44.740;37.770;2023-12-14T04:42:58;20.52;;;8.82;;
79019;SDS011;72857;44.740;37.770;2023-12-14T04:44:00;19.13;;;8.45;;
79019;SDS011;72857;44.740;37.770;2023-12-14T04:45:01;18.90;;;8.80;;
79019;SDS011;72857;44.740;37.770;2023-12-14T04:46:03;17.35;;;7.20;;
79019;SDS011;72857;44.740;37.770;2023-12-14T04:47:06;23.75;;;7.43;;
79019;SDS011;72857;44.740;37.770;2023-12-14T04:48:09;12.27;;;6.60;;
79019;SDS011;72857;44.740;37.770;2023-12-14T04:49:10;17.17;;;6.78;;
79019;SDS011;72857;44.740;37.770;2023-12-14T04:50:12;12.55;;;7.00;;
79019;SDS011;72857;44.740;37.770;2023-12-14T04:51:14;21.38;;;6.53;;
79019;SDS011;72857;44.740;37.770;2023-12-14T04:52:15;17.08;;;9.15;;
79019;SDS011;72857;44.740;37.770;2023-12-14T04:53:17;14.10;;;8.13;;
79019;SDS011;72857;44.740;37.770;2023-12-14T04:54:19;15.70;;;6.60;;
79019;SDS011;72857;44.740;37.770;2023-12-14T04:55:21;19.35;;;8.88;;
79019;SDS011;72857;44.740;37.770;2023-12-14T04:56:22;9.50;;;6.00;;
79019;SDS011;72857;44.740;37.770;2023-12-14T04:57:24;16.92;;;5.68;;
79019;SDS011;72857;44.740;37.770;2023-12-14T04:58:26;10.55;;;4.78;;
79019;SDS011;72857;44.740;37.770;2023-12-14T04:59:27;10.75;;;5.38;;
79019;SDS011;72857;44.740;37.770;2023-12-14T05:00:29;13.65;;;5.15;;
79019;SDS011;72857;44.740;37.770;2023-12-14T05:01:31;14.95;;;5.38;;
79019;SDS011;72857;44.740;37.770;2023-12-14T05:02:32;10.30;;;5.05;;
79019;SDS011;72857;44.740;37.770;2023-12-14T05:03:34;13.38;;;5.75;;
79019;SDS011;72857;44.740;37.770;2023-12-14T05:04:36;12.95;;;6.07;;
79019;SDS011;72857;44.740;37.770;2023-12-14T05:05:38;10.68;;;4.93;;
79019;SDS011;72857;44.740;37.770;2023-12-14T05:06:42;11.68;;;6.28;;
79019;SDS011;72857;44.740;37.770;2023-12-14T05:07:43;12.65;;;5.03;;
79019;SDS011;72857;44.740;37.770;2023-12-14T05:08:45;15.45;;;6.10;;
79019;SDS011;72857;44.740;37.770;2023-12-14T05:09:47;11.45;;;4.53;;
79019;SDS011;72857;44.740;37.770;2023-12-14T05:10:48;10.57;;;5.03;;
79019;SDS011;72857;44.740;37.770;2023-12-14T05:11:50;11.88;;;5.07;;
79019;SDS011;72857;44.740;37.770;2023-12-14T05:12:52;11.20;;;5.68;;
79019;SDS011;72857;44.740;37.770;2023-12-14T05:13:53;25.27;;;7.28;;
79019;SDS011;72857;44.740;37.770;2023-12-14T05:14:55;14.63;;;6.88;;
79019;SDS011;72857;44.740;37.770;2023-12-14T05:15:56;13.63;;;6.47;;
79019;SDS011;72857;44.740;37.770;2023-12-14T05:17:02;10.35;;;5.10;;
79019;SDS011;72857;44.740;37.770;2023-12-14T05:18:04;11.85;;;5.50;;
79019;SDS011;72857;44.740;37.770;2023-12-14T05:19:05;7.18;;;4.20;;
79019;SDS011;72857;44.740;37.770;2023-12-14T05:20:07;9.13;;;5.03;;
79019;SDS011;72857;44.740;37.770;2023-12-14T05:21:09;10.15;;;5.03;;
79019;SDS011;72857;44.740;37.770;2023-12-14T05:22:17;15.55;;;6.13;;
79019;SDS011;72857;44.740;37.770;2023-12-14T05:23:18;15.25;;;5.53;;
79019;SDS011;72857;44.740;37.770;2023-12-14T05:24:20;13.00;;;5.82;;
79019;SDS011;72857;44.740;37.770;2023-12-14T05:25:22;10.50;;;5.65;;
79019;SDS011;72857;44.740;37.770;2023-12-14T05:26:23;18.10;;;5.72;;
79019;SDS011;72857;44.740;37.770;2023-12-14T05:27:25;19.02;;;5.80;;
79019;SDS011;72857;44.740;37.770;2023-12-14T05:28:26;16.35;;;5.63;;
79019;SDS011;72857;44.740;37.770;2023-12-14T05:29:28;15.38;;;6.13;;
79019;SDS011;72857;44.740;37.770;2023-12-14T05:30:30;14.48;;;4.65;;
79019;SDS011;72857;44.740;37.770;2023-12-14T05:31:31;11.18;;;4.72;;
79019;SDS011;72857;44.740;37.770;2023-12-14T05:32:33;12.40;;;5.20;;
79019;SDS011;72857;44.740;37.770;2023-12-14T05:33:37;14.48;;;4.95;;
79019;SDS011;72857;44.740;37.770;2023-12-14T05:34:39;14.55;;;5.50;;
79019;SDS011;72857;44.740;37.770;2023-12-14T05:35:41;14.20;;;4.82;;
79019;SDS011;72857;44.740;37.770;2023-12-14T05:36:43;16.15;;;5.10;;
79019;SDS011;72857;44.740;37.770;2023-12-14T05:37:44;19.70;;;5.80;;
79019;SDS011;72857;44.740;37.770;2023-12-14T05:38:46;19.75;;;5.97;;
79019;SDS011;72857;44.740;37.770;2023-12-14T05:39:47;8.95;;;4.72;;
79019;SDS011;72857;44.740;37.770;2023-12-14T05:40:49;10.65;;;4.78;;
79019;SDS011;72857;44.740;37.770;2023-12-14T05:41:51;8.88;;;5.10;;
79019;SDS011;72857;44.740;37.770;2023-12-14T05:42:52;8.70;;;5.45;;
79019;SDS011;72857;44.740;37.770;2023-12-14T05:43:55;15.50;;;5.35;;
79019;SDS011;72857;44.740;37.770;2023-12-14T05:44:57;9.13;;;4.82;;
79019;SDS011;72857;44.740;37.770;2023-12-14T05:45:59;15.75;;;5.03;;
79019;SDS011;72857;44.740;37.770;2023-12-14T05:47:01;8.85;;;5.00;;
79019;SDS011;72857;44.740;37.770;2023-12-14T05:48:02;18.85;;;5.03;;
79019;SDS011;72857;44.740;37.770;2023-12-14T05:49:06;16.98;;;4.80;;
79019;SDS011;72857;44.740;37.770;2023-12-14T05:50:08;10.45;;;4.70;;
79019;SDS011;72857;44.740;37.770;2023-12-14T05:51:11;11.07;;;4.55;;
79019;SDS011;72857;44.740;37.770;2023-12-14T05:52:12;11.57;;;4.60;;
79019;SDS011;72857;44.740;37.770;2023-12-14T05:53:14;12.05;;;4.60;;
79019;SDS011;72857;44.740;37.770;2023-12-14T05:54:15;10.68;;;4.43;;
79019;SDS011;72857;44.740;37.770;2023-12-14T05:55:17;14.35;;;5.53;;
79019;SDS011;72857;44.740;37.770;2023-12-14T05:56:22;9.55;;;5.00;;
79019;SDS011;72857;44.740;37.770;2023-12-14T05:57:24;15.60;;;5.30;;
79019;SDS011;72857;44.740;37.770;2023-12-14T05:58:26;9.25;;;4.45;;